Time;durP1;ratioP1;P1;durP2;ratioP2;P2;SDS_P1;SDS_P2;PMS_P1;PMS_P2;Temp;Humidity;BMP_temperature;BMP_pressure;BME280_temperature;BME280_humidity;BME280_pressure;Samples;Min_cycle;Max_cycle;Signal;HPM_P1;HPM_P2
2023/09/28 00:00:37;;;;;;;7.68;5.97;;;;;;;14.26;100.00;96469.47;6341638;22;20136;-64
2023/09/28 00:03:04;;;;;;;7.10;5.70;;;;;;;14.23;100.00;96467.91;6341603;22;20481;-64
2023/09/28 00:05:30;;;;;;;7.82;5.63;;;;;;;14.20;100.00;96468.22;6341919;22;20002;-64
2023/09/28 00:07:55;;;;;;;7.70;6.15;;;;;;;14.17;100.00;96479.09;6341948;22;20025;-65
2023/09/28 00:10:21;;;;;;;7.50;6.05;;;;;;;14.12;100.00;96470.78;6341779;22;20478;-65
2023/09/28 00:12:49;;;;;;;7.75;5.93;;;;;;;14.12;100.00;96465.47;6340813;22;19995;-64
2023/09/28 00:15:16;;;;;;;8.30;6.38;;;;;;;14.10;100.00;96460.31;6342144;22;19994;-64
2023/09/28 00:17:42;;;;;;;11.98;5.97;;;;;;;14.14;100.00;96452.91;6342373;22;19998;-64
2023/09/28 00:20:13;;;;;;;6.90;6.00;;;;;;;14.20;100.00;96452.31;6341921;22;20034;-64
2023/09/28 00:22:42;;;;;;;6.13;5.57;;;;;;;14.19;100.00;96455.97;6342248;22;20022;-64
2023/09/28 00:25:11;;;;;;;7.03;6.32;;;;;;;14.15;100.00;96454.59;6341614;22;20021;-65
2023/09/28 00:27:44;;;;;;;7.90;5.80;;;;;;;14.11;100.00;96438.16;6341449;22;20010;-64
2023/09/28 00:30:13;;;;;;;7.60;6.43;;;;;;;14.09;100.00;96428.69;6342021;22;20074;-64
2023/09/28 00:32:38;;;;;;;6.32;5.82;;;;;;;14.04;100.00;96427.34;6341780;22;19994;-64
2023/09/28 00:35:06;;;;;;;8.35;6.13;;;;;;;14.07;100.00;96438.59;6341840;22;20009;-64
2023/09/28 00:37:32;;;;;;;10.77;5.68;;;;;;;14.06;100.00;96431.66;6341688;22;20003;-65
2023/09/28 00:39:58;;;;;;;6.90;6.30;;;;;;;14.03;100.00;96425.63;6341856;22;19998;-64
2023/09/28 00:42:24;;;;;;;6.65;5.88;;;;;;;14.01;100.00;96421.47;6341562;22;20014;-64
2023/09/28 00:44:51;;;;;;;6.75;6.15;;;;;;;14.00;100.00;96418.00;6341367;22;20013;-64
2023/09/28 00:47:16;;;;;;;6.28;5.68;;;;;;;13.97;100.00;96420.09;6341736;22;20052;-64
2023/09/28 00:49:44;;;;;;;7.38;6.00;;;;;;;13.94;100.00;96423.06;6341592;22;20312;-64
2023/09/28 00:52:11;;;;;;;9.73;5.70;;;;;;;13.94;100.00;96431.81;6341344;22;20006;-64
2023/09/28 00:54:38;;;;;;;6.47;5.88;;;;;;;13.87;100.00;96428.09;6341584;22;20006;-64
2023/09/28 00:57:06;;;;;;;7.07;6.28;;;;;;;13.77;100.00;96425.47;6341186;22;20006;-64
2023/09/28 00:59:32;;;;;;;7.38;6.70;;;;;;;13.68;100.00;96421.03;6341259;22;20003;-64
2023/09/28 01:01:57;;;;;;;10.27;6.50;;;;;;;13.63;100.00;96418.81;6341112;22;20327;-64
2023/09/28 01:04:23;;;;;;;7.07;6.28;;;;;;;13.56;100.00;96417.72;6340842;22;20002;-64
2023/09/28 01:06:48;;;;;;;8.90;6.50;;;;;;;13.49;100.00;96417.47;6313364;22;19995;-64
2023/09/28 01:09:15;;;;;;;9.82;7.45;;;;;;;13.46;100.00;96396.56;6341450;22;19998;-64
2023/09/28 01:11:41;;;;;;;8.55;6.53;;;;;;;13.42;100.00;96396.00;6341357;22;19998;-64
2023/09/28 01:14:07;;;;;;;7.57;6.85;;;;;;;13.40;100.00;96402.41;6341144;22;20064;-64
2023/09/28 01:16:33;;;;;;;8.07;6.45;;;;;;;13.39;100.00;96384.88;6341176;22;20003;-64
2023/09/28 01:18:58;;;;;;;7.70;6.07;;;;;;;13.33;100.00;96391.56;6341141;22;20340;-64
2023/09/28 01:21:24;;;;;;;7.20;6.50;;;;;;;13.29;100.00;96396.31;6341282;22;20005;-64
2023/09/28 01:23:50;;;;;;;6.65;6.07;;;;;;;13.24;100.00;96398.53;6340066;22;20034;-64
2023/09/28 01:26:16;;;;;;;9.85;6.60;;;;;;;13.23;100.00;96396.03;6339771;22;20378;-64
2023/09/28 01:28:42;;;;;;;8.00;6.32;;;;;;;13.21;100.00;96398.81;6340233;22;20014;-64
2023/09/28 01:31:07;;;;;;;6.38;5.78;;;;;;;13.21;100.00;96403.28;6339987;22;20009;-64
2023/09/28 01:33:33;;;;;;;6.35;5.60;;;;;;;13.18;100.00;96394.66;6312947;22;20438;-64
2023/09/28 01:35:58;;;;;;;6.90;6.30;;;;;;;13.14;100.00;96395.88;6340130;22;20002;-64
2023/09/28 01:38:34;;;;;;;7.00;6.25;;;;;;;13.08;100.00;96395.63;6340271;22;19998;-64
2023/09/28 01:41:00;;;;;;;8.23;6.65;;;;;;;13.05;100.00;96394.09;6313371;22;20005;-64
2023/09/28 01:43:26;;;;;;;10.45;6.55;;;;;;;13.03;100.00;96403.97;6341254;22;20042;-64
2023/09/28 01:45:51;;;;;;;7.85;6.22;;;;;;;13.04;100.00;96389.78;6341072;22;20013;-64
2023/09/28 01:48:17;;;;;;;7.45;6.70;;;;;;;13.03;100.00;96386.28;6340515;22;19995;-64
2023/09/28 01:50:42;;;;;;;9.02;6.13;;;;;;;13.01;100.00;96387.44;6340945;22;20006;-64
2023/09/28 01:53:08;;;;;;;7.22;6.53;;;;;;;12.96;100.00;96387.03;6340497;22;20034;-65
2023/09/28 01:55:33;;;;;;;8.88;6.20;;;;;;;12.95;100.00;96388.81;6341077;22;20005;-64
2023/09/28 01:57:59;;;;;;;8.45;6.18;;;;;;;12.95;100.00;96380.06;6339999;22;20060;-64
2023/09/28 02:00:25;;;;;;;6.47;5.88;;;;;;;12.90;100.00;96375.19;6340965;22;20542;-64
2023/09/28 02:02:55;;;;;;;8.63;6.63;;;;;;;12.86;100.00;96371.16;6340469;22;20727;-64
2023/09/28 02:05:32;;;;;;;7.55;6.60;;;;;;;12.84;100.00;96371.28;6313958;22;20005;-64
2023/09/28 02:07:58;;;;;;;7.20;6.32;;;;;;;12.82;100.00;96370.59;6341097;22;19999;-64
2023/09/28 02:10:23;;;;;;;6.20;5.70;;;;;;;12.77;100.00;96364.91;6340589;22;19999;-64
2023/09/28 02:12:50;;;;;;;6.50;5.90;;;;;;;12.79;100.00;96359.47;6339871;22;20028;-64
2023/09/28 02:15:16;;;;;;;7.72;6.38;;;;;;;12.83;100.00;96374.09;6340389;22;20340;-64
2023/09/28 02:17:45;;;;;;;6.70;6.13;;;;;;;12.82;100.00;96364.47;6340694;22;20006;-65
2023/09/28 02:20:15;;;;;;;6.88;6.28;;;;;;;12.81;100.00;96365.44;6340864;22;20465;-64
2023/09/28 02:22:44;;;;;;;8.90;6.40;;;;;;;12.77;100.00;96358.78;6340592;22;20002;-64
2023/09/28 02:25:15;;;;;;;7.70;6.13;;;;;;;12.74;100.00;96352.78;6340700;22;20055;-65
2023/09/28 02:27:41;;;;;;;8.10;7.30;;;;;;;12.74;100.00;96349.34;6341221;22;20419;-64
2023/09/28 02:30:09;;;;;;;10.23;7.35;;;;;;;12.73;100.00;96345.03;6340565;22;19995;-64
2023/09/28 02:32:35;;;;;;;7.72;7.05;;;;;;;12.69;100.00;96346.25;6340587;22;20009;-64
2023/09/28 02:35:01;;;;;;;7.90;6.72;;;;;;;12.68;100.00;96349.88;6339690;22;20439;-64
2023/09/28 02:37:26;;;;;;;9.02;6.57;;;;;;;12.68;100.00;96344.59;6340353;22;19999;-64
2023/09/28 02:39:52;;;;;;;6.47;5.88;;;;;;;12.69;100.00;96340.97;6340732;22;20055;-64
2023/09/28 02:42:17;;;;;;;7.70;6.63;;;;;;;12.66;100.00;96343.91;6340152;22;20050;-65
2023/09/28 02:44:42;;;;;;;7.07;6.18;;;;;;;12.61;100.00;96339.88;6340566;22;20005;-64
2023/09/28 02:47:09;;;;;;;7.97;5.68;;;;;;;12.58;100.00;96345.44;6340547;22;20044;-64
2023/09/28 02:49:34;;;;;;;7.28;6.55;;;;;;;12.52;100.00;96340.72;6340582;22;19995;-64
2023/09/28 02:52:02;;;;;;;7.30;6.60;;;;;;;12.46;100.00;96341.25;6340660;22;20028;-64
2023/09/28 02:54:29;;;;;;;7.20;6.50;;;;;;;12.44;100.00;96327.34;6340736;22;20002;-64
2023/09/28 02:56:55;;;;;;;7.10;6.50;;;;;;;12.42;100.00;96324.00;6340431;22;19999;-64
2023/09/28 02:59:25;;;;;;;6.95;6.30;;;;;;;12.38;100.00;96327.91;6340749;22;20050;-64
2023/09/28 03:01:51;;;;;;;6.88;6.18;;;;;;;12.35;100.00;96328.19;6340204;22;20006;-65
2023/09/28 03:04:17;;;;;;;7.15;6.45;;;;;;;12.28;100.00;96318.19;6340618;22;20052;-64
2023/09/28 03:06:44;;;;;;;7.75;6.35;;;;;;;12.22;100.00;96308.16;6340548;22;20020;-65
2023/09/28 03:09:12;;;;;;;7.00;6.35;;;;;;;12.16;100.00;96311.34;6340008;22;20073;-64
2023/09/28 03:11:39;;;;;;;6.97;6.38;;;;;;;12.12;100.00;96312.59;6340516;22;20051;-64
2023/09/28 03:14:05;;;;;;;7.07;6.43;;;;;;;12.13;100.00;96311.63;6340427;22;20015;-64
2023/09/28 03:16:30;;;;;;;7.53;6.82;;;;;;;12.13;100.00;96311.63;6340120;22;20033;-64
2023/09/28 03:18:57;;;;;;;6.90;6.28;;;;;;;12.11;100.00;96317.03;6340121;22;20080;-65
2023/09/28 03:21:23;;;;;;;10.20;6.75;;;;;;;12.08;100.00;96306.75;6340145;22;19999;-64
2023/09/28 03:23:49;;;;;;;7.60;6.47;;;;;;;12.06;100.00;96302.59;6340529;22;20006;-64
2023/09/28 03:26:15;;;;;;;7.78;6.43;;;;;;;12.07;100.00;96296.34;6340086;22;20003;-64
2023/09/28 03:28:41;;;;;;;7.70;6.40;;;;;;;12.01;100.00;96284.50;6340482;22;20443;-64
2023/09/28 03:31:06;;;;;;;7.22;5.90;;;;;;;11.96;100.00;96287.53;6340287;22;20034;-66
2023/09/28 03:33:32;;;;;;;7.13;6.53;;;;;;;11.95;100.00;96287.69;6339978;22;19999;-64
2023/09/28 03:35:57;;;;;;;7.22;6.53;;;;;;;11.93;100.00;96287.78;6340289;22;19999;-64
2023/09/28 03:38:23;;;;;;;6.70;6.10;;;;;;;11.91;100.00;96289.75;6340656;22;20010;-65
2023/09/28 03:40:48;;;;;;;7.78;6.78;;;;;;;11.91;100.00;96295.00;6340615;22;20083;-64
2023/09/28 03:43:14;;;;;;;6.97;6.22;;;;;;;11.95;100.00;96283.22;6339957;22;20021;-64
2023/09/28 03:45:39;;;;;;;7.78;7.00;;;;;;;11.96;100.00;96276.97;6340232;22;19995;-64
2023/09/28 03:48:05;;;;;;;7.68;6.38;;;;;;;11.95;100.00;96279.75;6339308;22;19995;-64
2023/09/28 03:50:30;;;;;;;7.57;6.88;;;;;;;11.94;100.00;96288.66;6340280;22;19995;-64
2023/09/28 03:52:56;;;;;;;7.10;6.40;;;;;;;11.93;100.00;96287.78;6340094;22;19994;-64
2023/09/28 03:55:21;;;;;;;7.97;7.18;;;;;;;11.92;100.00;96275.56;6311774;22;20685;-64
2023/09/28 03:57:48;;;;;;;7.57;6.90;;;;;;;11.94;100.00;96278.09;6339798;22;20058;-64
2023/09/28 04:00:15;;;;;;;7.53;6.85;;;;;;;11.93;100.00;96273.75;6340174;22;20060;-64
2023/09/28 04:02:42;;;;;;;7.10;6.47;;;;;;;11.94;100.00;96271.00;6340223;22;19995;-64
2023/09/28 04:05:08;;;;;;;6.72;6.13;;;;;;;11.93;100.00;96266.69;6338781;22;20431;-64
2023/09/28 04:07:34;;;;;;;7.15;6.28;;;;;;;11.94;100.00;96262.25;6339845;22;19995;-64
2023/09/28 04:09:59;;;;;;;6.65;6.05;;;;;;;11.93;100.00;96263.19;6339981;22;20005;-65
2023/09/28 04:12:27;;;;;;;7.53;6.90;;;;;;;11.96;100.00;96261.13;6340061;22;20022;-64
2023/09/28 04:14:52;;;;;;;8.73;7.88;;;;;;;12.00;100.00;96277.53;6339651;22;20030;-64
2023/09/28 04:17:18;;;;;;;8.05;7.25;;;;;;;11.98;100.00;96269.75;6339886;22;20348;-64
2023/09/28 04:19:43;;;;;;;7.68;6.75;;;;;;;11.99;100.00;96278.50;6339869;22;20010;-64
2023/09/28 04:22:09;;;;;;;9.15;6.93;;;;;;;12.00;100.00;96278.34;6341355;22;19995;-64
2023/09/28 04:24:34;;;;;;;7.07;6.47;;;;;;;12.02;100.00;96273.00;6341851;22;20059;-64
2023/09/28 04:27:00;;;;;;;7.25;6.55;;;;;;;12.00;100.00;96278.34;6341443;22;20453;-64
2023/09/28 04:29:26;;;;;;;7.15;6.40;;;;;;;11.99;100.00;96276.69;6339876;22;20003;-64
2023/09/28 04:31:52;;;;;;;7.18;6.45;;;;;;;12.00;100.00;96275.72;6340836;22;20009;-64
2023/09/28 04:34:18;;;;;;;9.70;6.47;;;;;;;11.99;100.00;96274.03;6341647;22;19995;-64
2023/09/28 04:36:44;;;;;;;6.95;6.30;;;;;;;12.00;100.00;96275.72;6341171;22;20026;-64
2023/09/28 04:39:11;;;;;;;7.32;6.53;;;;;;;12.02;100.00;96279.09;6341101;22;20012;-64
2023/09/28 04:41:40;;;;;;;7.40;6.70;;;;;;;12.03;100.00;96282.56;6341301;22;20135;-64
2023/09/28 04:44:06;;;;;;;7.32;6.68;;;;;;;12.03;100.00;96277.28;6340954;22;20005;-64
2023/09/28 04:46:32;;;;;;;7.50;6.70;;;;;;;12.06;100.00;96279.66;6341534;22;19999;-64
2023/09/28 04:48:58;;;;;;;7.32;6.32;;;;;;;12.12;100.00;96271.19;6341360;22;20426;-64
2023/09/28 04:51:23;;;;;;;7.82;6.97;;;;;;;12.17;100.00;96273.41;6341090;22;20003;-64
2023/09/28 04:53:49;;;;;;;9.98;6.88;;;;;;;12.20;100.00;96275.78;6341024;22;20003;-64
2023/09/28 04:56:18;;;;;;;9.55;7.88;;;;;;;12.20;100.00;96274.97;6340771;22;20006;-64
2023/09/28 04:58:43;;;;;;;8.45;7.65;;;;;;;12.21;100.00;96273.97;6340959;22;20011;-64
2023/09/28 05:01:09;;;;;;;9.57;8.35;;;;;;;12.20;100.00;96272.31;6341494;22;20057;-64
2023/09/28 05:03:35;;;;;;;10.90;8.85;;;;;;;12.20;100.00;96275.78;6341500;22;19994;-64
2023/09/28 05:06:01;;;;;;;9.40;8.45;;;;;;;12.19;100.00;96282.03;6341442;22;20443;-64
2023/09/28 05:08:26;;;;;;;9.80;8.75;;;;;;;12.13;100.00;96283.41;6313885;22;20006;-64
2023/09/28 05:10:53;;;;;;;9.88;8.15;;;;;;;12.09;100.00;96279.38;6340549;22;20002;-64
2023/09/28 05:13:19;;;;;;;11.45;8.95;;;;;;;12.09;100.00;96281.19;6340638;22;20021;-64
2023/09/28 05:15:44;;;;;;;11.75;8.90;;;;;;;12.04;100.00;96284.22;6340365;22;19994;-64
2023/09/28 05:18:10;;;;;;;11.15;9.20;;;;;;;12.01;100.00;96287.16;6340844;22;19998;-64
2023/09/28 05:20:36;;;;;;;16.33;9.40;;;;;;;11.98;100.00;96288.22;6340540;22;20097;-64
2023/09/28 05:23:03;;;;;;;10.68;9.35;;;;;;;11.96;100.00;96282.25;6340728;22;20486;-64
2023/09/28 05:25:29;;;;;;;10.15;9.25;;;;;;;11.92;100.00;96290.56;6340532;22;19995;-64
2023/09/28 05:27:54;;;;;;;9.75;8.88;;;;;;;11.86;100.00;96279.59;6340596;22;20767;-64
2023/09/28 05:30:20;;;;;;;10.15;8.93;;;;;;;11.82;100.00;96287.88;6341218;22;20086;-64
2023/09/28 05:32:45;;;;;;;9.95;8.77;;;;;;;11.81;100.00;96284.44;6339810;22;20002;-64
2023/09/28 05:35:10;;;;;;;9.77;8.77;;;;;;;11.79;100.00;96282.91;6340136;22;20002;-64
2023/09/28 05:37:36;;;;;;;9.45;8.55;;;;;;;11.77;100.00;96282.19;6340154;22;20007;-64
2023/09/28 05:40:04;;;;;;;13.82;9.02;;;;;;;11.72;100.00;96280.81;6339322;22;20002;-64
2023/09/28 05:42:29;;;;;;;13.60;9.02;;;;;;;11.70;100.00;96290.66;6339570;22;20402;-64
2023/09/28 05:44:55;;;;;;;8.88;8.10;;;;;;;11.68;100.00;96289.09;6340351;22;19998;-64
2023/09/28 05:47:20;;;;;;;11.27;8.48;;;;;;;11.67;100.00;96288.28;6340511;22;19995;-64
2023/09/28 05:49:47;;;;;;;13.23;8.43;;;;;;;11.67;100.00;96292.72;6339156;22;20434;-64
2023/09/28 05:52:12;;;;;;;9.38;7.50;;;;;;;11.67;100.00;96296.19;6339934;22;20006;-64
2023/09/28 05:54:37;;;;;;;10.82;8.43;;;;;;;11.65;100.00;96287.59;6339643;22;19998;-64
2023/09/28 05:57:04;;;;;;;8.70;7.70;;;;;;;11.64;100.00;96285.06;6339833;22;20003;-63
2023/09/28 05:59:29;;;;;;;10.35;7.93;;;;;;;11.61;100.00;96289.66;6340546;22;20506;-64
2023/09/28 06:01:55;;;;;;;8.85;8.02;;;;;;;11.63;100.00;96286.03;6340747;22;19994;-65
2023/09/28 06:04:20;;;;;;;9.95;7.72;;;;;;;11.62;100.00;96290.50;6340796;22;20408;-63
2023/09/28 06:06:46;;;;;;;9.13;7.93;;;;;;;11.57;100.00;96284.78;6340030;22;20026;-63
2023/09/28 06:09:12;;;;;;;11.55;7.88;;;;;;;11.59;100.00;96282.84;6313036;22;19995;-63
2023/09/28 06:11:37;;;;;;;10.82;8.05;;;;;;;11.62;100.00;96287.88;6340531;22;20044;-63
2023/09/28 06:14:03;;;;;;;10.48;7.18;;;;;;;11.67;100.00;96282.16;6340440;22;20037;-63
2023/09/28 06:16:29;;;;;;;12.88;7.25;;;;;;;11.69;100.00;96281.06;6340407;22;19998;-64
2023/09/28 06:18:54;;;;;;;7.82;7.13;;;;;;;11.74;100.00;96286.78;6339666;22;20444;-64
2023/09/28 06:21:19;;;;;;;10.38;7.65;;;;;;;11.78;100.00;96278.59;6339873;22;19999;-64
2023/09/28 06:23:45;;;;;;;13.93;7.07;;;;;;;11.79;100.00;96277.63;6339668;22;20040;-64
2023/09/28 06:26:11;;;;;;;12.02;7.70;;;;;;;11.86;100.00;96281.41;6339946;22;20018;-64
2023/09/28 06:28:36;;;;;;;11.02;6.95;;;;;;;11.89;100.00;96276.66;6339279;22;20044;-64
2023/09/28 06:31:02;;;;;;;11.65;7.38;;;;;;;11.93;100.00;96276.41;6340277;22;20019;-64
2023/09/28 06:33:27;;;;;;;8.13;7.43;;;;;;;11.96;100.00;96282.25;6340754;22;19995;-64
2023/09/28 06:35:54;;;;;;;13.27;7.70;;;;;;;11.98;100.00;96285.56;6287157;22;20446;-64
2023/09/28 06:38:20;;;;;;;13.40;8.50;;;;;;;12.02;100.00;96281.72;6339721;22;20003;-63
2023/09/28 06:40:48;;;;;;;10.40;7.88;;;;;;;12.06;100.00;96270.91;6340269;22;20028;-64
2023/09/28 06:43:15;;;;;;;17.00;7.82;;;;;;;12.08;100.00;96274.25;6339913;22;19999;-63
2023/09/28 06:45:41;;;;;;;16.05;8.35;;;;;;;12.11;100.00;96276.63;6340068;22;19994;-63
2023/09/28 06:48:07;;;;;;;14.43;8.27;;;;;;;12.12;100.00;96283.56;6312069;22;20002;-64
2023/09/28 06:50:34;;;;;;;12.60;8.43;;;;;;;12.12;100.00;96287.00;6339248;22;20002;-64
2023/09/28 06:53:00;;;;;;;15.18;8.48;;;;;;;12.15;100.00;96292.00;6338965;22;20088;-63
2023/09/28 06:55:25;;;;;;;12.75;9.38;;;;;;;12.18;100.00;96296.19;6339485;22;20007;-64
2023/09/28 06:57:51;;;;;;;11.98;8.70;;;;;;;12.21;100.00;96295.91;6311129;22;20157;-63
2023/09/28 07:00:17;;;;;;;13.30;8.60;;;;;;;12.25;100.00;96296.50;6339946;22;20592;-63
2023/09/28 07:02:47;;;;;;;14.07;8.60;;;;;;;12.28;100.00;96301.50;6339446;22;19994;-63
2023/09/28 07:05:16;;;;;;;10.50;8.30;;;;;;;12.31;100.00;96288.84;6339749;22;20007;-63
2023/09/28 07:07:46;;;;;;;9.70;8.60;;;;;;;12.35;100.00;96291.22;6339404;22;20491;-63
2023/09/28 07:10:13;;;;;;;10.98;8.43;;;;;;;12.38;100.00;96293.56;6339212;22;20100;-64
2023/09/28 07:12:40;;;;;;;10.35;8.30;;;;;;;12.39;100.00;96290.81;6311217;22;20026;-63
2023/09/28 07:15:06;;;;;;;12.40;8.32;;;;;;;12.42;100.00;96282.59;6339447;22;20103;-64
2023/09/28 07:17:33;;;;;;;8.75;7.82;;;;;;;12.46;100.00;96291.06;6339448;22;20060;-63
2023/09/28 07:19:59;;;;;;;13.50;8.20;;;;;;;12.54;100.00;96285.94;6339479;22;20387;-63
2023/09/28 07:22:24;;;;;;;17.75;9.50;;;;;;;12.78;100.00;96289.94;6339523;22;19999;-63
2023/09/28 07:24:49;;;;;;;10.02;8.30;;;;;;;13.08;100.00;96288.06;6339540;22;20450;-63
2023/09/28 07:27:16;;;;;;;8.82;7.78;;;;;;;13.36;100.00;96280.19;6339352;22;19999;-63
2023/09/28 07:29:41;;;;;;;11.38;7.97;;;;;;;13.59;100.00;96282.50;6339449;22;20076;-64
2023/09/28 07:32:08;;;;;;;9.38;7.65;;;;;;;13.80;100.00;96294.66;6338797;22;20003;-63
2023/09/28 07:34:33;;;;;;;11.80;8.52;;;;;;;13.95;100.00;96301.13;6339417;22;20002;-63
2023/09/28 07:36:59;;;;;;;10.02;7.60;;;;;;;14.12;100.00;96304.78;6311585;22;20042;-63
2023/09/28 07:39:24;;;;;;;9.05;7.45;;;;;;;14.25;100.00;96325.59;6338933;22;20002;-63
2023/09/28 07:41:51;;;;;;;7.90;7.10;;;;;;;14.38;100.00;96335.00;6339081;22;19994;-63
2023/09/28 07:44:19;;;;;;;15.50;9.45;;;;;;;14.52;100.00;96342.44;6337953;22;20747;-63
2023/09/28 07:46:45;;;;;;;11.88;10.30;;;;;;;14.65;100.00;96350.03;6339224;22;20070;-63
2023/09/28 07:49:11;;;;;;;8.93;8.02;;;;;;;14.78;100.00;96367.38;6338950;22;20438;-63
2023/09/28 07:51:38;;;;;;;7.60;6.88;;;;;;;14.89;100.00;96367.97;6339426;22;20003;-63
2023/09/28 07:54:04;;;;;;;6.35;5.75;;;;;;;15.09;100.00;96393.50;6338937;22;20002;-64
2023/09/28 07:56:29;;;;;;;8.02;6.90;;;;;;;15.28;100.00;96396.00;6339471;22;20037;-64
2023/09/28 07:58:57;;;;;;;6.70;6.05;;;;;;;15.42;100.00;96410.50;6340913;22;20064;-64
2023/09/28 08:01:22;;;;;;;7.03;6.32;;;;;;;15.57;100.00;96420.53;6340524;22;20332;-64
2023/09/28 08:03:47;;;;;;;9.57;6.38;;;;;;;15.82;100.00;96421.53;6340943;22;20056;-64
2023/09/28 08:06:13;;;;;;;7.93;6.20;;;;;;;15.99;100.00;96424.31;6341260;22;19998;-64
2023/09/28 08:08:39;;;;;;;6.57;5.97;;;;;;;16.19;100.00;96432.88;6313766;22;20500;-64
2023/09/28 08:11:04;;;;;;;6.85;6.00;;;;;;;16.43;100.00;96429.50;6340088;22;20009;-63
2023/09/28 08:13:29;;;;;;;6.60;5.85;;;;;;;16.59;100.00;96443.84;6339830;22;20026;-64
2023/09/28 08:15:55;;;;;;;6.15;5.50;;;;;;;16.68;100.00;96431.38;6340283;22;20003;-64
2023/09/28 08:18:20;;;;;;;6.25;5.50;;;;;;;16.78;100.00;96420.59;6339721;22;20013;-64
2023/09/28 08:20:46;;;;;;;7.05;6.15;;;;;;;16.86;100.00;96439.25;6338938;22;19994;-64
2023/09/28 08:23:11;;;;;;;8.60;6.00;;;;;;;16.95;100.00;96446.25;6340186;22;20005;-64
2023/09/28 08:25:37;;;;;;;6.40;5.80;;;;;;;17.06;100.00;96453.09;6340310;22;20005;-64
2023/09/28 08:28:02;;;;;;;7.47;5.85;;;;;;;17.16;100.00;96459.13;6340604;22;20011;-64
2023/09/28 08:30:28;;;;;;;6.22;5.50;;;;;;;17.26;100.00;96458.13;6340446;22;19995;-64
2023/09/28 08:32:53;;;;;;;6.78;5.50;;;;;;;17.32;100.00;96460.13;6340114;22;20043;-64
2023/09/28 08:35:18;;;;;;;6.63;5.68;;;;;;;17.30;100.00;96443.47;6340233;22;20060;-64
2023/09/28 08:37:44;;;;;;;9.38;5.82;;;;;;;17.22;100.00;96438.97;6312848;22;20026;-64
2023/09/28 08:40:10;;;;;;;6.72;5.85;;;;;;;17.11;100.00;96453.44;6340081;22;20002;-64
2023/09/28 08:42:40;;;;;;;6.53;5.93;;;;;;;17.12;100.00;96446.31;6340226;22;19999;-64
2023/09/28 08:45:06;;;;;;;5.80;5.38;;;;;;;17.03;100.00;96429.50;6340621;22;19995;-64
2023/09/28 08:47:35;;;;;;;6.22;5.57;;;;;;;16.87;100.00;96441.75;6340605;22;19995;-64
2023/09/28 08:50:02;;;;;;;8.57;5.50;;;;;;;16.88;100.00;96442.59;6340957;22;20407;-64
2023/09/28 08:52:28;;;;;;;6.15;5.57;;;;;;;16.92;100.00;96454.56;6339679;22;20373;-64
2023/09/28 08:54:59;;;;;;;6.68;6.00;;;;;;;16.92;100.00;96448.41;6340693;22;19998;-64
2023/09/28 08:57:27;;;;;;;6.45;5.78;;;;;;;16.95;100.00;96446.25;6340381;22;20006;-64
2023/09/28 08:59:53;;;;;;;6.70;5.95;;;;;;;17.02;100.00;96449.13;6340779;22;20007;-64
2023/09/28 09:02:19;;;;;;;7.32;6.05;;;;;;;17.11;100.00;96452.63;6313452;22;20006;-64
2023/09/28 09:04:45;;;;;;;6.13;5.43;;;;;;;17.17;100.00;96462.59;6340622;22;20013;-64
2023/09/28 09:07:11;;;;;;;6.57;5.93;;;;;;;17.23;100.00;96451.28;6340086;22;19999;-64
2023/09/28 09:09:40;;;;;;;7.25;5.63;;;;;;;17.37;100.00;96443.66;6340821;22;20054;-64
2023/09/28 09:12:10;;;;;;;7.05;5.28;;;;;;;17.43;100.00;96440.31;6313733;22;19998;-63
2023/09/28 09:14:35;;;;;;;7.82;5.75;;;;;;;17.48;100.00;96432.69;6340671;22;20036;-64
2023/09/28 09:17:02;;;;;;;8.50;5.43;;;;;;;17.32;100.00;96433.50;6340947;22;20009;-63
2023/09/28 09:19:31;;;;;;;8.57;5.75;;;;;;;17.46;100.00;96434.66;6288518;22;20003;-63
2023/09/28 09:21:57;;;;;;;6.82;6.10;;;;;;;17.44;100.00;96416.22;6340909;22;20501;-64
2023/09/28 09:24:23;;;;;;;5.63;5.13;;;;;;;17.50;100.00;96397.91;6341065;22;20002;-64
2023/09/28 09:26:52;;;;;;;5.82;5.32;;;;;;;17.43;100.00;96403.91;6341479;22;20090;-64
2023/09/28 09:29:18;;;;;;;7.93;5.80;;;;;;;17.43;100.00;96406.56;6340411;22;20002;-64
2023/09/28 09:31:46;;;;;;;5.88;5.38;;;;;;;17.45;100.00;96388.59;6340951;22;20003;-64
2023/09/28 09:34:21;;;;;;;6.47;5.88;;;;;;;17.48;100.00;96408.72;6313277;22;20093;-63
2023/09/28 09:36:51;;;;;;;7.15;5.30;;;;;;;17.57;100.00;96404.19;6340814;22;20003;-64
2023/09/28 09:39:25;;;;;;;6.75;6.05;;;;;;;17.60;100.00;96422.53;6341189;22;20862;-63
2023/09/28 09:41:52;;;;;;;5.80;5.22;;;;;;;17.78;100.00;96432.97;6341044;22;20002;-63
2023/09/28 09:44:19;;;;;;;6.32;5.35;;;;;;;17.88;100.00;96406.97;6341473;22;20415;-64
2023/09/28 09:46:55;;;;;;;6.22;5.60;;;;;;;17.98;100.00;96412.09;6313418;22;20060;-63
2023/09/28 09:49:24;;;;;;;7.63;5.80;;;;;;;18.12;100.00;96388.47;6341251;22;20373;-63
2023/09/28 09:51:49;;;;;;;6.05;5.32;;;;;;;18.20;100.00;96371.63;6341417;22;20002;-64
2023/09/28 09:54:16;;;;;;;5.75;5.13;;;;;;;18.33;100.00;96380.72;6341544;22;20407;-64
2023/09/28 09:56:52;;;;;;;5.95;5.40;;;;;;;18.41;100.00;96373.66;6340404;22;19999;-64
2023/09/28 09:59:20;;;;;;;6.88;5.28;;;;;;;18.51;100.00;96392.13;6341076;22;19998;-63
2023/09/28 10:01:49;;;;;;;8.32;5.72;;;;;;;18.68;100.00;96376.84;6340528;22;20009;-64
2023/09/28 10:04:16;;;;;;;6.95;5.25;;;;;;;18.79;100.00;96360.44;6341162;22;20003;-63
2023/09/28 10:06:50;;;;;;;5.63;5.05;;;;;;;18.67;100.00;96357.38;6341022;22;20009;-63
2023/09/28 10:09:18;;;;;;;6.10;5.17;;;;;;;18.66;100.00;96369.03;6341450;22;20071;-63
2023/09/28 10:11:47;;;;;;;5.32;4.93;;;;;;;18.72;100.00;96355.00;6341921;22;20224;-63
2023/09/28 10:14:15;;;;;;;5.70;5.18;;;;;;;18.81;100.00;96360.28;6340933;22;20022;-62
2023/09/28 10:16:42;;;;;;;5.63;4.85;;;;;;;18.87;100.00;96347.03;6340567;22;20308;-62
2023/09/28 10:19:09;;;;;;;5.50;5.03;;;;;;;18.96;100.00;96339.81;6340417;22;20007;-62
2023/09/28 10:21:36;;;;;;;5.68;5.10;;;;;;;19.09;100.00;96322.41;6339889;22;19999;-62
2023/09/28 10:24:11;;;;;;;8.35;5.43;;;;;;;19.12;100.00;96322.88;6340752;22;20435;-63
2023/09/28 10:26:41;;;;;;;5.50;5.00;;;;;;;19.18;100.00;96327.50;6340358;22;19995;-62
2023/09/28 10:29:09;;;;;;;7.95;5.15;;;;;;;19.27;100.00;96333.59;6341110;22;20010;-62
2023/09/28 10:31:40;;;;;;;5.30;4.80;;;;;;;19.45;100.00;96333.25;6340946;22;20021;-62
2023/09/28 10:34:08;;;;;;;5.65;5.15;;;;;;;19.58;100.00;96329.13;6340903;22;20002;-63
2023/09/28 10:36:35;;;;;;;6.90;5.35;;;;;;;19.61;100.00;96307.38;6340747;22;19994;-62
2023/09/28 10:39:09;;;;;;;5.43;5.00;;;;;;;19.73;100.00;96323.78;6340712;22;20005;-62
2023/09/28 10:41:37;;;;;;;5.05;4.63;;;;;;;19.67;100.00;96319.16;6340470;22;20009;-63
2023/09/28 10:44:11;;;;;;;10.88;5.25;;;;;;;19.72;100.00;96312.25;6340227;22;20085;-63
2023/09/28 10:46:44;;;;;;;7.20;4.97;;;;;;;19.91;100.00;96315.41;6340252;22;19999;-63
2023/09/28 10:49:13;;;;;;;6.22;4.72;;;;;;;19.85;100.00;96310.78;6340065;22;20002;-63
2023/09/28 10:51:38;;;;;;;6.43;5.10;;;;;;;19.86;100.00;96328.47;6340474;22;20037;-62
2023/09/28 10:54:08;;;;;;;5.93;5.30;;;;;;;19.86;100.00;96344.50;6340905;22;19995;-63
2023/09/28 10:56:34;;;;;;;7.35;5.75;;;;;;;19.96;100.00;96339.72;6339754;22;20346;-63
2023/09/28 10:59:02;;;;;;;7.10;4.80;;;;;;;20.09;100.00;96323.03;6340416;22;20528;-63
2023/09/28 11:01:28;;;;;;;5.50;5.00;;;;;;;20.14;100.00;96314.47;6340712;22;19995;-63
2023/09/28 11:03:54;;;;;;;5.80;5.30;;;;;;;20.11;100.00;96312.16;6339009;22;20050;-63
2023/09/28 11:06:20;;;;;;;6.30;5.00;;;;;;;20.16;100.00;96325.78;6338568;22;19999;-63
2023/09/28 11:08:45;;;;;;;5.97;5.47;;;;;;;20.13;100.00;96318.16;6338701;22;19998;-63
2023/09/28 11:11:11;;;;;;;7.95;5.13;;;;;;;20.01;100.00;96333.81;6339863;22;20411;-63
2023/09/28 11:13:37;;;;;;;5.35;4.80;;;;;;;19.98;100.00;96348.38;6339394;22;20018;-63
2023/09/28 11:16:03;;;;;;;7.25;4.93;;;;;;;20.01;100.00;96349.88;6340285;22;19998;-63
2023/09/28 11:18:29;;;;;;;5.95;4.97;;;;;;;20.01;100.00;96358.72;6340407;22;20067;-62
2023/09/28 11:20:56;;;;;;;5.55;5.05;;;;;;;19.99;100.00;96371.41;6340245;22;19999;-63